sensor_id;sensor_type;location;lat;lon;timestamp;P1;durP1;ratioP1;P2;durP2;ratioP2
72715;SDS011;60830;64.560;40.542;2022-12-08T00:02:23;6.15;;;4.30;;
72715;SDS011;60830;64.560;40.542;2022-12-08T00:04:49;9.60;;;6.03;;
72715;SDS011;60830;64.560;40.542;2022-12-08T00:07:33;5.13;;;3.72;;
72715;SDS011;60830;64.560;40.542;2022-12-08T00:10:17;4.22;;;3.85;;
72715;SDS011;60830;64.560;40.542;2022-12-08T00:12:43;5.70;;;4.85;;
72715;SDS011;60830;64.560;40.542;2022-12-08T00:15:09;5.38;;;4.00;;
72715;SDS011;60830;64.560;40.542;2022-12-08T00:17:36;6.10;;;4.03;;
72715;SDS011;60830;64.560;40.542;2022-12-08T00:20:02;6.45;;;4.95;;
72715;SDS011;60830;64.560;40.542;2022-12-08T00:22:28;5.70;;;4.07;;
72715;SDS011;60830;64.560;40.542;2022-12-08T00:24:56;5.20;;;3.72;;
72715;SDS011;60830;64.560;40.542;2022-12-08T00:27:22;5.45;;;4.35;;
72715;SDS011;60830;64.560;40.542;2022-12-08T00:29:49;5.07;;;4.60;;
72715;SDS011;60830;64.560;40.542;2022-12-08T00:32:15;7.72;;;4.93;;
72715;SDS011;60830;64.560;40.542;2022-12-08T00:34:41;5.53;;;4.63;;
72715;SDS011;60830;64.560;40.542;2022-12-08T00:37:07;4.70;;;3.42;;
72715;SDS011;60830;64.560;40.542;2022-12-08T00:39:33;5.90;;;5.38;;
72715;SDS011;60830;64.560;40.542;2022-12-08T00:41:59;5.97;;;4.22;;
72715;SDS011;60830;64.560;40.542;2022-12-08T00:44:41;4.68;;;4.22;;
72715;SDS011;60830;64.560;40.542;2022-12-08T00:47:08;8.23;;;4.75;;
72715;SDS011;60830;64.560;40.542;2022-12-08T00:49:34;3.75;;;3.45;;
72715;SDS011;60830;64.560;40.542;2022-12-08T00:52:00;6.32;;;4.50;;
72715;SDS011;60830;64.560;40.542;2022-12-08T00:54:26;5.43;;;4.85;;
72715;SDS011;60830;64.560;40.542;2022-12-08T00:56:52;8.52;;;5.38;;
72715;SDS011;60830;64.560;40.542;2022-12-08T00:59:19;5.55;;;4.35;;
72715;SDS011;60830;64.560;40.542;2022-12-08T01:01:45;6.25;;;4.32;;
72715;SDS011;60830;64.560;40.542;2022-12-08T01:04:12;4.22;;;3.80;;
72715;SDS011;60830;64.560;40.542;2022-12-08T01:06:42;4.57;;;4.18;;
72715;SDS011;60830;64.560;40.542;2022-12-08T01:09:08;7.63;;;5.10;;
72715;SDS011;60830;64.560;40.542;2022-12-08T01:11:35;5.72;;;5.18;;
72715;SDS011;60830;64.560;40.542;2022-12-08T01:14:01;4.32;;;3.92;;
72715;SDS011;60830;64.560;40.542;2022-12-08T01:16:29;4.50;;;4.13;;
72715;SDS011;60830;64.560;40.542;2022-12-08T01:18:56;7.90;;;4.72;;
72715;SDS011;60830;64.560;40.542;2022-12-08T01:21:22;5.00;;;4.50;;
72715;SDS011;60830;64.560;40.542;2022-12-08T01:23:48;7.40;;;5.43;;
72715;SDS011;60830;64.560;40.542;2022-12-08T01:26:15;7.32;;;5.10;;
72715;SDS011;60830;64.560;40.542;2022-12-08T01:28:42;5.72;;;5.22;;
72715;SDS011;60830;64.560;40.542;2022-12-08T01:31:12;8.98;;;6.90;;
72715;SDS011;60830;64.560;40.542;2022-12-08T01:33:38;7.38;;;4.90;;
72715;SDS011;60830;64.560;40.542;2022-12-08T01:36:04;6.00;;;4.32;;
72715;SDS011;60830;64.560;40.542;2022-12-08T01:38:31;4.47;;;4.05;;
72715;SDS011;60830;64.560;40.542;2022-12-08T01:40:57;4.20;;;3.80;;
72715;SDS011;60830;64.560;40.542;2022-12-08T01:43:23;5.05;;;4.20;;
72715;SDS011;60830;64.560;40.542;2022-12-08T01:45:49;7.35;;;5.68;;
72715;SDS011;60830;64.560;40.542;2022-12-08T01:48:25;6.93;;;4.88;;
72715;SDS011;60830;64.560;40.542;2022-12-08T01:50:52;5.38;;;4.90;;
72715;SDS011;60830;64.560;40.542;2022-12-08T01:53:21;7.53;;;4.75;;
72715;SDS011;60830;64.560;40.542;2022-12-08T01:58:18;5.57;;;4.82;;
72715;SDS011;60830;64.560;40.542;2022-12-08T02:00:45;4.35;;;3.53;;
72715;SDS011;60830;64.560;40.542;2022-12-08T02:03:13;4.28;;;3.92;;
72715;SDS011;60830;64.560;40.542;2022-12-08T02:05:41;5.25;;;4.75;;
72715;SDS011;60830;64.560;40.542;2022-12-08T02:08:08;5.50;;;3.60;;
72715;SDS011;60830;64.560;40.542;2022-12-08T02:10:35;6.88;;;5.05;;
72715;SDS011;60830;64.560;40.542;2022-12-08T02:13:02;7.90;;;5.82;;
72715;SDS011;60830;64.560;40.542;2022-12-08T02:16:02;6.70;;;6.00;;
72715;SDS011;60830;64.560;40.542;2022-12-08T02:24:11;4.95;;;4.32;;
72715;SDS011;60830;64.560;40.542;2022-12-08T02:42:08;6.75;;;5.72;;
72715;SDS011;60830;64.560;40.542;2022-12-08T02:44:54;9.23;;;5.00;;
72715;SDS011;60830;64.560;40.542;2022-12-08T02:47:22;5.07;;;3.92;;
72715;SDS011;60830;64.560;40.542;2022-12-08T02:49:48;8.18;;;5.55;;
72715;SDS011;60830;64.560;40.542;2022-12-08T02:54:48;5.85;;;3.72;;
72715;SDS011;60830;64.560;40.542;2022-12-08T02:59:49;9.82;;;4.28;;
72715;SDS011;60830;64.560;40.542;2022-12-08T03:02:27;4.28;;;3.80;;
72715;SDS011;60830;64.560;40.542;2022-12-08T03:07:25;5.25;;;4.55;;
72715;SDS011;60830;64.560;40.542;2022-12-08T03:09:55;7.07;;;5.50;;
72715;SDS011;60830;64.560;40.542;2022-12-08T03:14:50;5.97;;;4.43;;
72715;SDS011;60830;64.560;40.542;2022-12-08T03:17:17;8.93;;;5.80;;
72715;SDS011;60830;64.560;40.542;2022-12-08T03:19:45;5.13;;;4.40;;
72715;SDS011;60830;64.560;40.542;2022-12-08T03:22:13;4.13;;;3.80;;
72715;SDS011;60830;64.560;40.542;2022-12-08T03:24:41;6.10;;;4.90;;
72715;SDS011;60830;64.560;40.542;2022-12-08T03:27:11;6.38;;;4.72;;
72715;SDS011;60830;64.560;40.542;2022-12-08T03:29:39;7.28;;;4.25;;
72715;SDS011;60830;64.560;40.542;2022-12-08T03:32:07;5.95;;;4.68;;
72715;SDS011;60830;64.560;40.542;2022-12-08T03:34:34;7.47;;;5.30;;
72715;SDS011;60830;64.560;40.542;2022-12-08T03:37:00;6.38;;;5.75;;
72715;SDS011;60830;64.560;40.542;2022-12-08T03:39:27;4.95;;;4.50;;
72715;SDS011;60830;64.560;40.542;2022-12-08T03:41:53;5.25;;;4.70;;
72715;SDS011;60830;64.560;40.542;2022-12-08T03:44:19;5.15;;;4.07;;
72715;SDS011;60830;64.560;40.542;2022-12-08T03:46:45;4.22;;;3.50;;
72715;SDS011;60830;64.560;40.542;2022-12-08T03:49:11;5.63;;;4.57;;
72715;SDS011;60830;64.560;40.542;2022-12-08T03:51:37;5.72;;;4.28;;
72715;SDS011;60830;64.560;40.542;2022-12-08T03:54:03;8.65;;;4.78;;
72715;SDS011;60830;64.560;40.542;2022-12-08T03:56:31;6.38;;;4.78;;
72715;SDS011;60830;64.560;40.542;2022-12-08T03:58:57;7.50;;;5.13;;
72715;SDS011;60830;64.560;40.542;2022-12-08T04:01:24;7.40;;;6.07;;
72715;SDS011;60830;64.560;40.542;2022-12-08T04:03:50;6.50;;;4.32;;
72715;SDS011;60830;64.560;40.542;2022-12-08T04:06:17;5.30;;;3.95;;
72715;SDS011;60830;64.560;40.542;2022-12-08T04:08:43;6.07;;;3.25;;
72715;SDS011;60830;64.560;40.542;2022-12-08T04:11:09;3.80;;;3.58;;
72715;SDS011;60830;64.560;40.542;2022-12-08T04:13:36;5.78;;;4.28;;
72715;SDS011;60830;64.560;40.542;2022-12-08T04:16:02;4.80;;;4.32;;
72715;SDS011;60830;64.560;40.542;2022-12-08T04:18:28;6.55;;;4.68;;
72715;SDS011;60830;64.560;40.542;2022-12-08T04:20:54;2.58;;;2.35;;
72715;SDS011;60830;64.560;40.542;2022-12-08T04:23:20;6.18;;;3.83;;
72715;SDS011;60830;64.560;40.542;2022-12-08T04:25:46;5.25;;;3.83;;
72715;SDS011;60830;64.560;40.542;2022-12-08T04:28:12;4.80;;;3.50;;
72715;SDS011;60830;64.560;40.542;2022-12-08T04:30:38;7.00;;;4.70;;
72715;SDS011;60830;64.560;40.542;2022-12-08T04:33:05;4.68;;;4.22;;
72715;SDS011;60830;64.560;40.542;2022-12-08T04:35:31;6.28;;;4.00;;
72715;SDS011;60830;64.560;40.542;2022-12-08T04:37:57;5.78;;;3.78;;
72715;SDS011;60830;64.560;40.542;2022-12-08T04:40:23;5.53;;;4.07;;
72715;SDS011;60830;64.560;40.542;2022-12-08T04:42:49;9.80;;;4.63;;
72715;SDS011;60830;64.560;40.542;2022-12-08T04:45:15;9.05;;;5.35;;
72715;SDS011;60830;64.560;40.542;2022-12-08T04:47:41;9.00;;;4.45;;
72715;SDS011;60830;64.560;40.542;2022-12-08T04:50:07;7.13;;;5.32;;
72715;SDS011;60830;64.560;40.542;2022-12-08T04:52:34;6.13;;;4.70;;
72715;SDS011;60830;64.560;40.542;2022-12-08T04:55:00;6.53;;;5.13;;
72715;SDS011;60830;64.560;40.542;2022-12-08T04:57:26;5.82;;;5.25;;
72715;SDS011;60830;64.560;40.542;2022-12-08T04:59:52;5.78;;;3.97;;
72715;SDS011;60830;64.560;40.542;2022-12-08T05:02:18;5.28;;;4.03;;
72715;SDS011;60830;64.560;40.542;2022-12-08T05:04:44;4.60;;;4.18;;
72715;SDS011;60830;64.560;40.542;2022-12-08T05:07:10;5.68;;;5.18;;
72715;SDS011;60830;64.560;40.542;2022-12-08T05:09:36;5.78;;;4.70;;
72715;SDS011;60830;64.560;40.542;2022-12-08T05:12:03;9.45;;;6.00;;
72715;SDS011;60830;64.560;40.542;2022-12-08T05:14:29;7.20;;;6.00;;
72715;SDS011;60830;64.560;40.542;2022-12-08T05:16:55;9.32;;;5.75;;
72715;SDS011;60830;64.560;40.542;2022-12-08T05:19:21;8.52;;;7.63;;
72715;SDS011;60830;64.560;40.542;2022-12-08T05:21:47;5.28;;;4.75;;
72715;SDS011;60830;64.560;40.542;2022-12-08T05:24:13;4.75;;;3.95;;
72715;SDS011;60830;64.560;40.542;2022-12-08T05:26:39;7.13;;;6.00;;
72715;SDS011;60830;64.560;40.542;2022-12-08T05:29:05;6.10;;;5.50;;
72715;SDS011;60830;64.560;40.542;2022-12-08T05:31:31;5.43;;;4.70;;
72715;SDS011;60830;64.560;40.542;2022-12-08T05:33:57;7.38;;;4.95;;
72715;SDS011;60830;64.560;40.542;2022-12-08T05:36:23;6.28;;;5.45;;
72715;SDS011;60830;64.560;40.542;2022-12-08T05:38:49;11.00;;;7.60;;
72715;SDS011;60830;64.560;40.542;2022-12-08T05:41:17;6.95;;;4.70;;
72715;SDS011;60830;64.560;40.542;2022-12-08T05:43:44;7.97;;;6.03;;
72715;SDS011;60830;64.560;40.542;2022-12-08T05:46:10;7.90;;;5.15;;
72715;SDS011;60830;64.560;40.542;2022-12-08T05:48:36;7.22;;;4.68;;
72715;SDS011;60830;64.560;40.542;2022-12-08T05:51:03;8.80;;;5.93;;
72715;SDS011;60830;64.560;40.542;2022-12-08T05:53:29;6.22;;;4.85;;
72715;SDS011;60830;64.560;40.542;2022-12-08T05:55:55;6.60;;;5.47;;
72715;SDS011;60830;64.560;40.542;2022-12-08T05:58:21;10.43;;;6.63;;
72715;SDS011;60830;64.560;40.542;2022-12-08T06:00:49;12.07;;;8.23;;
72715;SDS011;60830;64.560;40.542;2022-12-08T06:03:16;10.48;;;7.78;;
72715;SDS011;60830;64.560;40.542;2022-12-08T06:05:43;11.10;;;6.65;;
72715;SDS011;60830;64.560;40.542;2022-12-08T06:08:09;7.63;;;6.25;;
72715;SDS011;60830;64.560;40.542;2022-12-08T06:10:39;5.25;;;4.80;;
72715;SDS011;60830;64.560;40.542;2022-12-08T06:13:05;10.35;;;7.25;;
72715;SDS011;60830;64.560;40.542;2022-12-08T06:15:33;5.45;;;4.95;;
72715;SDS011;60830;64.560;40.542;2022-12-08T06:17:59;9.40;;;6.03;;
72715;SDS011;60830;64.560;40.542;2022-12-08T06:20:25;7.80;;;5.72;;
72715;SDS011;60830;64.560;40.542;2022-12-08T06:22:51;9.48;;;8.18;;
72715;SDS011;60830;64.560;40.542;2022-12-08T06:25:18;9.65;;;6.28;;
72715;SDS011;60830;64.560;40.542;2022-12-08T06:27:44;10.57;;;7.55;;
72715;SDS011;60830;64.560;40.542;2022-12-08T06:30:10;11.40;;;8.73;;
72715;SDS011;60830;64.560;40.542;2022-12-08T06:32:37;8.98;;;6.45;;
72715;SDS011;60830;64.560;40.542;2022-12-08T06:35:03;11.73;;;7.57;;
72715;SDS011;60830;64.560;40.542;2022-12-08T06:37:29;6.15;;;5.10;;
72715;SDS011;60830;64.560;40.542;2022-12-08T06:39:55;6.22;;;5.60;;
72715;SDS011;60830;64.560;40.542;2022-12-08T06:42:21;7.50;;;5.97;;
72715;SDS011;60830;64.560;40.542;2022-12-08T06:45:06;9.27;;;7.13;;
72715;SDS011;60830;64.560;40.542;2022-12-08T06:47:32;8.63;;;5.82;;
72715;SDS011;60830;64.560;40.542;2022-12-08T06:49:58;11.48;;;7.57;;
72715;SDS011;60830;64.560;40.542;2022-12-08T06:52:24;10.77;;;5.10;;
72715;SDS011;60830;64.560;40.542;2022-12-08T06:54:50;10.10;;;8.38;;
72715;SDS011;60830;64.560;40.542;2022-12-08T06:57:16;9.23;;;6.63;;
72715;SDS011;60830;64.560;40.542;2022-12-08T06:59:43;22.67;;;13.15;;
72715;SDS011;60830;64.560;40.542;2022-12-08T07:02:09;9.18;;;6.32;;
72715;SDS011;60830;64.560;40.542;2022-12-08T07:04:36;9.15;;;6.07;;
72715;SDS011;60830;64.560;40.542;2022-12-08T07:07:02;8.93;;;6.47;;
72715;SDS011;60830;64.560;40.542;2022-12-08T07:09:28;8.15;;;5.93;;
72715;SDS011;60830;64.560;40.542;2022-12-08T07:11:54;6.68;;;5.28;;
72715;SDS011;60830;64.560;40.542;2022-12-08T07:14:20;7.93;;;4.85;;
72715;SDS011;60830;64.560;40.542;2022-12-08T07:16:50;6.35;;;5.57;;
72715;SDS011;60830;64.560;40.542;2022-12-08T07:19:16;7.28;;;5.95;;
72715;SDS011;60830;64.560;40.542;2022-12-08T07:21:42;6.63;;;5.50;;
72715;SDS011;60830;64.560;40.542;2022-12-08T07:24:09;7.55;;;6.70;;
72715;SDS011;60830;64.560;40.542;2022-12-08T07:26:35;9.80;;;7.93;;
72715;SDS011;60830;64.560;40.542;2022-12-08T07:29:01;8.50;;;6.57;;
72715;SDS011;60830;64.560;40.542;2022-12-08T07:31:27;8.02;;;5.80;;
72715;SDS011;60830;64.560;40.542;2022-12-08T07:33:54;4.25;;;3.60;;
72715;SDS011;60830;64.560;40.542;2022-12-08T07:36:20;5.93;;;5.18;;
72715;SDS011;60830;64.560;40.542;2022-12-08T07:38:47;8.88;;;5.45;;
72715;SDS011;60830;64.560;40.542;2022-12-08T07:41:14;5.55;;;3.97;;
72715;SDS011;60830;64.560;40.542;2022-12-08T07:43:40;8.60;;;7.65;;
72715;SDS011;60830;64.560;40.542;2022-12-08T07:46:06;6.13;;;5.25;;
72715;SDS011;60830;64.560;40.542;2022-12-08T07:48:32;8.48;;;5.97;;
72715;SDS011;60830;64.560;40.542;2022-12-08T07:51:02;8.05;;;5.13;;
72715;SDS011;60830;64.560;40.542;2022-12-08T07:53:28;7.90;;;5.18;;
72715;SDS011;60830;64.560;40.542;2022-12-08T07:55:55;8.20;;;4.88;;
72715;SDS011;60830;64.560;40.542;2022-12-08T07:58:21;8.10;;;5.35;;
72715;SDS011;60830;64.560;40.542;2022-12-08T08:00:47;7.60;;;5.80;;
72715;SDS011;60830;64.560;40.542;2022-12-08T08:03:13;7.93;;;5.70;;
72715;SDS011;60830;64.560;40.542;2022-12-08T08:05:39;6.97;;;5.60;;
72715;SDS011;60830;64.560;40.542;2022-12-08T08:08:05;9.70;;;6.57;;
72715;SDS011;60830;64.560;40.542;2022-12-08T08:10:31;10.25;;;6.32;;
72715;SDS011;60830;64.560;40.542;2022-12-08T08:12:58;8.32;;;6.40;;
72715;SDS011;60830;64.560;40.542;2022-12-08T08:15:24;8.35;;;6.97;;
72715;SDS011;60830;64.560;40.542;2022-12-08T08:17:50;8.50;;;6.60;;
72715;SDS011;60830;64.560;40.542;2022-12-08T08:20:17;7.32;;;5.05;;
72715;SDS011;60830;64.560;40.542;2022-12-08T08:22:46;8.65;;;6.18;;
72715;SDS011;60830;64.560;40.542;2022-12-08T08:25:13;9.48;;;7.32;;
72715;SDS011;60830;64.560;40.542;2022-12-08T08:27:39;10.75;;;7.80;;
72715;SDS011;60830;64.560;40.542;2022-12-08T08:30:06;8.48;;;7.35;;
72715;SDS011;60830;64.560;40.542;2022-12-08T08:32:33;8.75;;;6.28;;
72715;SDS011;60830;64.560;40.542;2022-12-08T08:34:59;10.40;;;8.25;;
72715;SDS011;60830;64.560;40.542;2022-12-08T08:37:25;9.93;;;6.93;;
72715;SDS011;60830;64.560;40.542;2022-12-08T08:39:52;6.72;;;4.22;;
72715;SDS011;60830;64.560;40.542;2022-12-08T08:42:18;9.52;;;5.40;;
72715;SDS011;60830;64.560;40.542;2022-12-08T08:44:44;7.72;;;6.35;;
72715;SDS011;60830;64.560;40.542;2022-12-08T08:47:10;7.40;;;6.47;;
72715;SDS011;60830;64.560;40.542;2022-12-08T08:49:36;13.40;;;7.68;;
72715;SDS011;60830;64.560;40.542;2022-12-08T08:52:03;10.60;;;7.68;;
72715;SDS011;60830;64.560;40.542;2022-12-08T08:54:29;13.27;;;9.65;;
72715;SDS011;60830;64.560;40.542;2022-12-08T08:56:56;6.50;;;5.78;;
72715;SDS011;60830;64.560;40.542;2022-12-08T08:59:23;15.98;;;8.93;;
72715;SDS011;60830;64.560;40.542;2022-12-08T09:01:49;13.70;;;10.40;;
72715;SDS011;60830;64.560;40.542;2022-12-08T09:04:15;12.50;;;7.65;;
72715;SDS011;60830;64.560;40.542;2022-12-08T09:06:41;16.20;;;10.52;;
72715;SDS011;60830;64.560;40.542;2022-12-08T09:09:08;13.40;;;9.30;;
72715;SDS011;60830;64.560;40.542;2022-12-08T09:11:34;11.75;;;9.00;;
72715;SDS011;60830;64.560;40.542;2022-12-08T09:14:00;10.13;;;8.05;;
72715;SDS011;60830;64.560;40.542;2022-12-08T09:16:26;10.27;;;7.45;;
72715;SDS011;60830;64.560;40.542;2022-12-08T09:18:53;12.43;;;8.95;;
72715;SDS011;60830;64.560;40.542;2022-12-08T09:21:20;12.40;;;7.57;;
72715;SDS011;60830;64.560;40.542;2022-12-08T09:23:48;10.98;;;8.15;;
72715;SDS011;60830;64.560;40.542;2022-12-08T09:26:14;12.32;;;7.45;;
72715;SDS011;60830;64.560;40.542;2022-12-08T09:28:40;8.13;;;6.40;;
72715;SDS011;60830;64.560;40.542;2022-12-08T09:31:12;11.77;;;7.82;;
72715;SDS011;60830;64.560;40.542;2022-12-08T09:33:38;12.30;;;10.02;;
72715;SDS011;60830;64.560;40.542;2022-12-08T09:36:04;7.90;;;6.28;;
72715;SDS011;60830;64.560;40.542;2022-12-08T09:38:31;13.45;;;9.73;;
72715;SDS011;60830;64.560;40.542;2022-12-08T09:40:57;14.38;;;6.70;;
72715;SDS011;60830;64.560;40.542;2022-12-08T09:45:59;10.57;;;6.43;;
72715;SDS011;60830;64.560;40.542;2022-12-08T09:48:32;10.55;;;8.45;;
72715;SDS011;60830;64.560;40.542;2022-12-08T09:50:59;10.45;;;7.18;;
72715;SDS011;60830;64.560;40.542;2022-12-08T10:01:12;8.88;;;5.63;;
72715;SDS011;60830;64.560;40.542;2022-12-08T10:03:39;14.18;;;8.23;;
72715;SDS011;60830;64.560;40.542;2022-12-08T10:08:49;14.65;;;7.65;;
72715;SDS011;60830;64.560;40.542;2022-12-08T10:11:24;13.23;;;8.33;;
72715;SDS011;60830;64.560;40.542;2022-12-08T10:16:26;9.27;;;6.97;;
72715;SDS011;60830;64.560;40.542;2022-12-08T10:19:28;7.78;;;5.03;;
72715;SDS011;60830;64.560;40.542;2022-12-08T10:21:49;13.50;;;8.65;;
72715;SDS011;60830;64.560;40.542;2022-12-08T10:26:41;8.75;;;5.47;;
72715;SDS011;60830;64.560;40.542;2022-12-08T10:29:10;11.48;;;9.13;;
72715;SDS011;60830;64.560;40.542;2022-12-08T10:31:37;8.07;;;5.50;;
72715;SDS011;60830;64.560;40.542;2022-12-08T10:34:13;10.10;;;7.18;;
72715;SDS011;60830;64.560;40.542;2022-12-08T10:36:53;6.68;;;5.50;;
72715;SDS011;60830;64.560;40.542;2022-12-08T10:39:34;9.35;;;7.00;;
72715;SDS011;60830;64.560;40.542;2022-12-08T10:42:08;5.20;;;4.50;;
72715;SDS011;60830;64.560;40.542;2022-12-08T10:44:37;12.40;;;7.40;;
72715;SDS011;60830;64.560;40.542;2022-12-08T10:47:12;8.85;;;6.95;;
72715;SDS011;60830;64.560;40.542;2022-12-08T10:49:38;9.20;;;6.35;;
72715;SDS011;60830;64.560;40.542;2022-12-08T10:52:08;13.40;;;8.45;;
72715;SDS011;60830;64.560;40.542;2022-12-08T10:54:46;7.68;;;5.45;;
72715;SDS011;60830;64.560;40.542;2022-12-08T10:57:20;7.25;;;4.63;;
72715;SDS011;60830;64.560;40.542;2022-12-08T10:59:46;9.82;;;6.55;;
72715;SDS011;60830;64.560;40.542;2022-12-08T11:02:16;6.97;;;5.68;;
72715;SDS011;60830;64.560;40.542;2022-12-08T11:04:43;13.05;;;7.15;;
72715;SDS011;60830;64.560;40.542;2022-12-08T11:07:09;9.15;;;7.55;;
72715;SDS011;60830;64.560;40.542;2022-12-08T11:09:41;10.77;;;7.82;;
72715;SDS011;60830;64.560;40.542;2022-12-08T11:12:16;7.10;;;5.43;;
72715;SDS011;60830;64.560;40.542;2022-12-08T11:22:32;6.93;;;4.78;;
72715;SDS011;60830;64.560;40.542;2022-12-08T11:25:08;7.63;;;5.80;;
72715;SDS011;60830;64.560;40.542;2022-12-08T11:27:41;10.13;;;7.40;;
72715;SDS011;60830;64.560;40.542;2022-12-08T11:30:13;6.95;;;4.80;;
72715;SDS011;60830;64.560;40.542;2022-12-08T11:32:40;6.95;;;6.00;;
72715;SDS011;60830;64.560;40.542;2022-12-08T11:35:07;7.40;;;6.70;;
72715;SDS011;60830;64.560;40.542;2022-12-08T11:37:36;7.57;;;5.47;;
72715;SDS011;60830;64.560;40.542;2022-12-08T11:40:07;4.78;;;3.53;;
72715;SDS011;60830;64.560;40.542;2022-12-08T11:42:49;6.47;;;5.53;;
72715;SDS011;60830;64.560;40.542;2022-12-08T11:45:19;8.18;;;5.50;;
72715;SDS011;60830;64.560;40.542;2022-12-08T11:47:52;7.95;;;6.10;;
72715;SDS011;60830;64.560;40.542;2022-12-08T11:50:23;11.43;;;8.25;;
72715;SDS011;60830;64.560;40.542;2022-12-08T11:52:50;7.88;;;5.40;;
72715;SDS011;60830;64.560;40.542;2022-12-08T11:57:43;6.97;;;4.78;;
72715;SDS011;60830;64.560;40.542;2022-12-08T12:00:10;5.63;;;5.10;;
72715;SDS011;60830;64.560;40.542;2022-12-08T12:02:38;7.03;;;5.88;;
72715;SDS011;60830;64.560;40.542;2022-12-08T12:05:08;5.93;;;5.05;;
72715;SDS011;60830;64.560;40.542;2022-12-08T12:10:34;8.80;;;6.38;;
72715;SDS011;60830;64.560;40.542;2022-12-08T12:20:57;5.40;;;4.63;;
72715;SDS011;60830;64.560;40.542;2022-12-08T12:23:39;5.72;;;4.60;;
72715;SDS011;60830;64.560;40.542;2022-12-08T12:26:07;5.00;;;4.57;;
72715;SDS011;60830;64.560;40.542;2022-12-08T12:28:44;7.90;;;5.82;;
72715;SDS011;60830;64.560;40.542;2022-12-08T12:31:15;5.22;;;4.45;;
72715;SDS011;60830;64.560;40.542;2022-12-08T12:33:42;10.90;;;5.28;;
72715;SDS011;60830;64.560;40.542;2022-12-08T12:36:10;6.78;;;5.57;;
72715;SDS011;60830;64.560;40.542;2022-12-08T12:38:38;7.25;;;4.97;;
72715;SDS011;60830;64.560;40.542;2022-12-08T12:41:24;7.78;;;5.40;;
72715;SDS011;60830;64.560;40.542;2022-12-08T12:51:58;7.75;;;6.35;;
72715;SDS011;60830;64.560;40.542;2022-12-08T12:54:25;11.05;;;7.88;;
72715;SDS011;60830;64.560;40.542;2022-12-08T12:56:52;8.07;;;5.35;;
72715;SDS011;60830;64.560;40.542;2022-12-08T13:02:10;7.00;;;5.15;;
72715;SDS011;60830;64.560;40.542;2022-12-08T13:04:39;7.25;;;4.65;;
72715;SDS011;60830;64.560;40.542;2022-12-08T13:07:05;8.35;;;5.90;;
72715;SDS011;60830;64.560;40.542;2022-12-08T13:09:34;7.45;;;6.03;;
72715;SDS011;60830;64.560;40.542;2022-12-08T13:12:11;10.38;;;7.75;;
72715;SDS011;60830;64.560;40.542;2022-12-08T13:14:44;7.00;;;5.22;;
72715;SDS011;60830;64.560;40.542;2022-12-08T13:17:24;9.13;;;7.32;;
72715;SDS011;60830;64.560;40.542;2022-12-08T13:19:55;5.38;;;3.95;;
72715;SDS011;60830;64.560;40.542;2022-12-08T13:22:56;6.72;;;5.63;;
72715;SDS011;60830;64.560;40.542;2022-12-08T13:28:00;6.43;;;4.18;;
72715;SDS011;60830;64.560;40.542;2022-12-08T13:30:43;6.53;;;5.60;;
72715;SDS011;60830;64.560;40.542;2022-12-08T13:33:12;5.20;;;4.03;;
72715;SDS011;60830;64.560;40.542;2022-12-08T13:35:41;7.53;;;6.25;;
72715;SDS011;60830;64.560;40.542;2022-12-08T13:38:12;11.10;;;7.25;;
72715;SDS011;60830;64.560;40.542;2022-12-08T13:40:40;8.02;;;5.32;;
72715;SDS011;60830;64.560;40.542;2022-12-08T13:45:42;7.72;;;5.10;;
72715;SDS011;60830;64.560;40.542;2022-12-08T13:48:12;9.45;;;6.97;;
72715;SDS011;60830;64.560;40.542;2022-12-08T13:50:41;7.07;;;5.30;;
72715;SDS011;60830;64.560;40.542;2022-12-08T13:53:15;6.35;;;4.95;;
72715;SDS011;60830;64.560;40.542;2022-12-08T13:58:18;5.68;;;4.97;;
72715;SDS011;60830;64.560;40.542;2022-12-08T14:01:07;7.47;;;6.35;;
72715;SDS011;60830;64.560;40.542;2022-12-08T14:03:46;6.90;;;4.97;;
72715;SDS011;60830;64.560;40.542;2022-12-08T14:06:17;6.75;;;6.05;;
72715;SDS011;60830;64.560;40.542;2022-12-08T14:08:45;7.93;;;6.15;;
72715;SDS011;60830;64.560;40.542;2022-12-08T14:11:15;7.47;;;5.53;;
72715;SDS011;60830;64.560;40.542;2022-12-08T14:14:19;9.70;;;6.10;;
72715;SDS011;60830;64.560;40.542;2022-12-08T14:17:04;6.90;;;5.72;;
72715;SDS011;60830;64.560;40.542;2022-12-08T14:19:31;7.80;;;5.40;;
72715;SDS011;60830;64.560;40.542;2022-12-08T14:22:16;9.90;;;7.95;;
72715;SDS011;60830;64.560;40.542;2022-12-08T14:27:10;10.77;;;6.25;;
72715;SDS011;60830;64.560;40.542;2022-12-08T14:29:39;13.38;;;9.63;;
72715;SDS011;60830;64.560;40.542;2022-12-08T14:32:17;11.40;;;9.57;;
72715;SDS011;60830;64.560;40.542;2022-12-08T14:34:44;11.25;;;7.60;;
72715;SDS011;60830;64.560;40.542;2022-12-08T14:37:11;8.80;;;5.95;;
72715;SDS011;60830;64.560;40.542;2022-12-08T14:39:37;9.35;;;7.45;;
72715;SDS011;60830;64.560;40.542;2022-12-08T14:42:03;10.20;;;7.20;;
72715;SDS011;60830;64.560;40.542;2022-12-08T14:44:30;10.15;;;5.43;;
72715;SDS011;60830;64.560;40.542;2022-12-08T14:47:07;8.57;;;5.63;;
72715;SDS011;60830;64.560;40.542;2022-12-08T14:49:36;10.65;;;6.60;;
72715;SDS011;60830;64.560;40.542;2022-12-08T14:52:02;7.88;;;5.70;;
72715;SDS011;60830;64.560;40.542;2022-12-08T14:54:33;6.90;;;5.93;;
72715;SDS011;60830;64.560;40.542;2022-12-08T14:56:59;9.55;;;7.47;;
72715;SDS011;60830;64.560;40.542;2022-12-08T14:59:26;11.70;;;7.63;;
72715;SDS011;60830;64.560;40.542;2022-12-08T15:07:23;12.05;;;9.05;;
72715;SDS011;60830;64.560;40.542;2022-12-08T15:10:09;8.80;;;6.63;;
72715;SDS011;60830;64.560;40.542;2022-12-08T15:15:13;14.27;;;8.30;;
72715;SDS011;60830;64.560;40.542;2022-12-08T15:17:43;17.45;;;12.75;;
72715;SDS011;60830;64.560;40.542;2022-12-08T15:22:55;10.50;;;9.45;;
72715;SDS011;60830;64.560;40.542;2022-12-08T15:25:22;12.38;;;7.53;;
72715;SDS011;60830;64.560;40.542;2022-12-08T15:27:48;10.57;;;7.50;;
72715;SDS011;60830;64.560;40.542;2022-12-08T15:30:15;9.07;;;7.15;;
72715;SDS011;60830;64.560;40.542;2022-12-08T15:32:42;7.72;;;5.32;;
72715;SDS011;60830;64.560;40.542;2022-12-08T15:35:12;15.85;;;11.05;;
72715;SDS011;60830;64.560;40.542;2022-12-08T15:37:38;13.23;;;10.25;;
72715;SDS011;60830;64.560;40.542;2022-12-08T15:40:05;15.90;;;10.65;;
72715;SDS011;60830;64.560;40.542;2022-12-08T15:42:31;12.68;;;8.77;;
72715;SDS011;60830;64.560;40.542;2022-12-08T15:44:57;8.75;;;6.40;;
72715;SDS011;60830;64.560;40.542;2022-12-08T15:47:23;14.07;;;9.00;;
72715;SDS011;60830;64.560;40.542;2022-12-08T15:49:50;11.50;;;9.95;;
72715;SDS011;60830;64.560;40.542;2022-12-08T15:52:21;18.88;;;12.85;;
72715;SDS011;60830;64.560;40.542;2022-12-08T15:54:47;24.75;;;16.77;;
72715;SDS011;60830;64.560;40.542;2022-12-08T15:57:20;12.88;;;9.68;;
72715;SDS011;60830;64.560;40.542;2022-12-08T15:59:47;19.65;;;12.68;;
72715;SDS011;60830;64.560;40.542;2022-12-08T16:02:14;20.50;;;13.15;;
72715;SDS011;60830;64.560;40.542;2022-12-08T16:04:40;20.00;;;13.50;;
72715;SDS011;60830;64.560;40.542;2022-12-08T16:07:06;28.50;;;19.42;;
72715;SDS011;60830;64.560;40.542;2022-12-08T16:09:40;21.50;;;12.32;;
72715;SDS011;60830;64.560;40.542;2022-12-08T16:12:14;52.60;;;27.13;;
72715;SDS011;60830;64.560;40.542;2022-12-08T16:14:59;22.67;;;13.38;;
72715;SDS011;60830;64.560;40.542;2022-12-08T16:17:25;22.55;;;11.35;;
72715;SDS011;60830;64.560;40.542;2022-12-08T16:19:51;17.73;;;9.70;;
72715;SDS011;60830;64.560;40.542;2022-12-08T16:22:21;13.57;;;9.25;;
72715;SDS011;60830;64.560;40.542;2022-12-08T16:24:49;15.38;;;9.98;;